createdAt,value
2023-05-07T00:02:17.208Z,9.30
2023-05-07T00:04:45.390Z,9.30
2023-05-07T00:07:12.931Z,9.30
2023-05-07T00:09:41.117Z,9.30
2023-05-07T00:12:09.139Z,9.30
2023-05-07T00:14:37.100Z,9.30
2023-05-07T00:17:04.636Z,9.30
2023-05-07T00:19:33.056Z,9.30
2023-05-07T00:22:00.702Z,9.30
2023-05-07T00:24:28.260Z,9.30
2023-05-07T00:26:56.014Z,9.30
2023-05-07T00:29:23.494Z,9.30
2023-05-07T00:31:52.109Z,9.30
2023-05-07T00:34:20.222Z,9.20
2023-05-07T00:36:47.788Z,9.30
2023-05-07T00:39:15.625Z,9.20
2023-05-07T00:41:43.221Z,9.20
2023-05-07T00:44:10.772Z,9.20
2023-05-07T00:46:38.968Z,9.20
2023-05-07T00:49:07.248Z,9.20
2023-05-07T00:51:35.246Z,9.20
2023-05-07T00:54:04.394Z,9.20
2023-05-07T00:56:33.043Z,9.20
2023-05-07T00:59:01.916Z,9.20
2023-05-07T01:01:30.127Z,9.20
2023-05-07T01:04:00.877Z,9.20
2023-05-07T01:06:30.841Z,9.20
2023-05-07T01:08:59.338Z,9.20
2023-05-07T01:11:27.337Z,9.20
2023-05-07T01:13:55.130Z,9.20
2023-05-07T01:16:23.183Z,9.30
2023-05-07T01:18:51.406Z,9.20
2023-05-07T01:21:19.390Z,9.20
2023-05-07T01:23:48.477Z,9.20
2023-05-07T01:26:16.360Z,9.20
2023-05-07T01:28:43.982Z,9.20
2023-05-07T01:31:13.485Z,9.20
2023-05-07T01:33:43.892Z,9.20
2023-05-07T01:36:12.980Z,9.20
2023-05-07T01:38:42.498Z,9.20
2023-05-07T01:41:10.197Z,9.20
2023-05-07T01:43:38.241Z,9.20
2023-05-07T01:46:06.584Z,9.20
2023-05-07T01:48:34.949Z,9.20
2023-05-07T01:51:03.561Z,9.20
2023-05-07T01:53:37.868Z,9.20
2023-05-07T01:56:06.260Z,9.20
2023-05-07T01:58:33.821Z,9.20
2023-05-07T02:01:01.733Z,9.20
2023-05-07T02:03:29.322Z,9.20
2023-05-07T02:05:57.375Z,9.20
2023-05-07T02:08:24.957Z,9.20
2023-05-07T02:10:52.789Z,9.20
2023-05-07T02:13:21.196Z,9.20
2023-05-07T02:15:51.684Z,9.20
2023-05-07T02:18:19.232Z,9.20
2023-05-07T02:20:46.761Z,9.20
2023-05-07T02:23:14.227Z,9.20
2023-05-07T02:25:41.715Z,9.20
2023-05-07T02:28:09.266Z,9.20
2023-05-07T02:30:38.185Z,9.20
2023-05-07T02:33:05.958Z,9.20
2023-05-07T02:35:33.557Z,9.20
2023-05-07T02:38:01.141Z,9.20
2023-05-07T02:40:28.644Z,9.20
2023-05-07T02:42:56.425Z,9.20
2023-05-07T02:45:23.976Z,9.20
2023-05-07T02:47:51.487Z,9.20
2023-05-07T02:50:19.272Z,9.20
2023-05-07T02:52:46.879Z,9.20
2023-05-07T02:55:14.575Z,9.20
2023-05-07T02:57:42.288Z,9.20
2023-05-07T03:00:17.560Z,9.20
2023-05-07T03:02:46.154Z,9.20
2023-05-07T03:05:14.619Z,9.20
2023-05-07T03:07:45.457Z,9.20
2023-05-07T03:10:13.269Z,9.20
2023-05-07T03:12:41.061Z,9.20
2023-05-07T03:15:09.374Z,9.20
2023-05-07T03:17:37.204Z,9.20
2023-05-07T03:20:05.173Z,9.20
2023-05-07T03:22:32.905Z,9.20
2023-05-07T03:25:00.975Z,9.20
2023-05-07T03:27:28.456Z,9.20
2023-05-07T03:29:56.146Z,9.10
2023-05-07T03:32:23.762Z,9.20
2023-05-07T03:34:51.287Z,9.10
2023-05-07T03:37:19.040Z,9.10
2023-05-07T03:39:46.491Z,9.10
2023-05-07T03:42:14.022Z,9.10
2023-05-07T03:44:41.598Z,9.10
2023-05-07T03:47:09.196Z,9.20
2023-05-07T03:49:36.782Z,9.10
2023-05-07T03:52:04.548Z,9.10
2023-05-07T03:54:32.404Z,9.10
2023-05-07T03:57:00.009Z,9.20
2023-05-07T03:59:27.577Z,9.20
2023-05-07T04:01:55.105Z,9.10
2023-05-07T04:04:22.626Z,9.10
2023-05-07T04:06:50.187Z,9.10
2023-05-07T04:09:17.702Z,9.20
2023-05-07T04:11:45.209Z,9.10
2023-05-07T04:14:12.775Z,9.20
2023-05-07T04:16:40.373Z,9.10
2023-05-07T04:19:08.108Z,9.10
2023-05-07T04:21:35.711Z,9.10
2023-05-07T04:24:05.117Z,9.10
2023-05-07T04:26:32.898Z,9.10
2023-05-07T04:29:00.991Z,9.10
2023-05-07T04:31:28.681Z,9.20
2023-05-07T04:33:56.514Z,9.10
2023-05-07T04:36:24.150Z,9.10
2023-05-07T04:38:51.661Z,9.20
2023-05-07T04:41:19.185Z,9.10
2023-05-07T04:43:46.939Z,9.20
2023-05-07T04:46:14.732Z,9.10
2023-05-07T04:48:42.223Z,9.10
2023-05-07T04:51:09.968Z,9.10
2023-05-07T04:53:37.547Z,9.10
2023-05-07T04:56:05.353Z,9.10
2023-05-07T04:58:33.146Z,9.10
2023-05-07T05:01:01.790Z,9.10
2023-05-07T05:03:29.684Z,9.10
2023-05-07T05:06:00.565Z,9.10
2023-05-07T05:08:28.057Z,9.20
2023-05-07T05:10:55.798Z,9.10
2023-05-07T05:13:23.436Z,9.10
2023-05-07T05:15:51.695Z,9.10
2023-05-07T05:18:19.187Z,9.10
2023-05-07T05:20:46.729Z,9.20
2023-05-07T05:23:14.372Z,9.10
2023-05-07T05:25:41.942Z,9.10
2023-05-07T05:28:09.476Z,9.10
2023-05-07T05:30:37.045Z,9.10
2023-05-07T05:33:04.753Z,9.10
2023-05-07T05:35:32.994Z,9.20
2023-05-07T05:38:00.919Z,9.10
2023-05-07T05:40:28.402Z,9.20
2023-05-07T05:42:56.023Z,9.20
2023-05-07T05:45:23.585Z,9.20
2023-05-07T05:47:51.212Z,9.20
2023-05-07T05:50:18.921Z,9.20
2023-05-07T05:52:46.434Z,9.20
2023-05-07T05:55:13.936Z,9.20
2023-05-07T05:57:41.830Z,9.20
2023-05-07T06:00:10.673Z,9.20
2023-05-07T06:02:38.918Z,9.20
2023-05-07T06:05:07.042Z,9.20
2023-05-07T06:07:35.881Z,9.20
2023-05-07T06:10:03.549Z,9.30
2023-05-07T06:12:31.072Z,9.30
2023-05-07T06:14:58.595Z,9.30
2023-05-07T06:17:26.139Z,9.30
2023-05-07T06:19:54.183Z,9.30
2023-05-07T06:22:21.720Z,9.30
2023-05-07T06:24:49.223Z,9.30
2023-05-07T06:27:16.755Z,9.30
2023-05-07T06:29:44.229Z,9.30
2023-05-07T06:32:13.574Z,9.30
2023-05-07T06:34:41.951Z,9.30
2023-05-07T06:37:09.403Z,9.30
2023-05-07T06:39:36.968Z,9.30
2023-05-07T06:42:05.900Z,9.30
2023-05-07T06:44:33.705Z,9.30
2023-05-07T06:47:01.454Z,9.30
2023-05-07T06:49:29.012Z,9.40
2023-05-07T06:51:56.856Z,9.40
2023-05-07T06:54:24.624Z,9.40
2023-05-07T06:56:52.143Z,9.40
2023-05-07T06:59:20.620Z,9.40
2023-05-07T07:01:48.200Z,9.40
2023-05-07T07:04:16.023Z,9.40
2023-05-07T07:06:43.602Z,9.40
2023-05-07T07:09:11.253Z,9.40
2023-05-07T07:11:39.226Z,9.40
2023-05-07T07:14:07.105Z,9.40
2023-05-07T07:16:34.784Z,9.50
2023-05-07T07:19:02.363Z,9.50
2023-05-07T07:21:29.977Z,9.50
2023-05-07T07:23:57.660Z,9.50
2023-05-07T07:26:25.229Z,9.50
2023-05-07T07:28:52.694Z,9.50
2023-05-07T07:31:20.302Z,9.50
2023-05-07T07:33:47.910Z,9.50
2023-05-07T07:36:15.456Z,9.50
2023-05-07T07:38:43.254Z,9.50
2023-05-07T07:41:11.137Z,9.50
2023-05-07T07:43:38.844Z,9.50
2023-05-07T07:46:06.669Z,9.50
2023-05-07T07:48:34.770Z,9.50
2023-05-07T07:51:02.361Z,9.50
2023-05-07T07:53:29.949Z,9.60
2023-05-07T07:55:59.328Z,9.60
2023-05-07T07:58:27.525Z,9.60
2023-05-07T08:00:57.165Z,9.60
2023-05-07T08:03:25.105Z,9.60
2023-05-07T08:05:53.157Z,9.60
2023-05-07T08:08:20.984Z,9.60
2023-05-07T08:10:51.171Z,9.60
2023-05-07T08:13:19.889Z,9.60
2023-05-07T08:15:47.438Z,9.70
2023-05-07T08:18:14.936Z,9.70
2023-05-07T08:20:42.730Z,9.70
2023-05-07T08:23:10.484Z,9.70
2023-05-07T08:25:38.746Z,9.70
2023-05-07T08:28:08.353Z,9.70
2023-05-07T08:30:37.382Z,9.70
2023-05-07T08:33:05.026Z,9.80
2023-05-07T08:35:32.657Z,9.80
2023-05-07T08:38:00.173Z,9.80
2023-05-07T08:40:28.343Z,9.80
2023-05-07T08:42:57.764Z,9.80
2023-05-07T08:45:26.006Z,9.90
2023-05-07T08:48:01.225Z,9.90
2023-05-07T08:50:29.225Z,10.00
2023-05-07T08:52:58.236Z,10.00
2023-05-07T08:55:26.568Z,10.00
2023-05-07T08:57:54.328Z,10.00
2023-05-07T09:00:21.870Z,10.10
2023-05-07T09:02:49.497Z,10.10
2023-05-07T09:05:17.115Z,10.20
2023-05-07T09:07:44.614Z,10.20
2023-05-07T09:10:12.595Z,10.20
2023-05-07T09:12:41.133Z,10.20
2023-05-07T09:15:09.688Z,10.20
2023-05-07T09:17:37.685Z,10.30
2023-05-07T09:20:08.567Z,10.30
2023-05-07T09:22:40.782Z,10.30
2023-05-07T09:25:09.755Z,10.30
2023-05-07T09:27:38.018Z,10.50
2023-05-07T09:30:07.538Z,10.60
2023-05-07T09:32:41.806Z,10.70
2023-05-07T09:35:19.451Z,10.70
2023-05-07T09:37:47.798Z,10.80
2023-05-07T09:40:26.354Z,10.80
2023-05-07T09:42:54.236Z,10.70
2023-05-07T09:45:28.533Z,10.80
2023-05-07T09:47:59.982Z,10.80
2023-05-07T09:50:30.081Z,10.70
2023-05-07T09:52:58.598Z,10.80
2023-05-07T09:55:26.785Z,10.80
2023-05-07T09:57:55.241Z,10.80
2023-05-07T10:00:23.535Z,10.80
2023-05-07T10:02:54.082Z,10.80
2023-05-07T10:05:22.820Z,10.90
2023-05-07T10:07:51.677Z,10.80
2023-05-07T10:10:19.617Z,10.80
2023-05-07T10:12:47.819Z,10.80
2023-05-07T10:15:15.854Z,10.80
2023-05-07T10:17:43.467Z,10.80
2023-05-07T10:20:11.377Z,10.80
2023-05-07T10:22:50.000Z,10.80
2023-05-07T10:25:24.747Z,10.90
2023-05-07T10:27:54.936Z,10.90
2023-05-07T10:30:55.358Z,10.90
2023-05-07T10:33:27.573Z,11.00
2023-05-07T10:36:01.964Z,11.00
2023-05-07T10:38:30.773Z,11.00
2023-05-07T10:40:58.478Z,11.00
2023-05-07T10:43:26.274Z,11.00
2023-05-07T10:46:13.556Z,11.00
2023-05-07T10:49:10.034Z,11.10
2023-05-07T10:51:41.288Z,11.10
2023-05-07T10:54:12.118Z,11.10
2023-05-07T10:56:47.177Z,11.10
2023-05-07T10:59:33.032Z,11.20
2023-05-07T11:02:09.098Z,11.20
2023-05-07T11:04:37.531Z,11.20
2023-05-07T11:07:08.298Z,11.30
2023-05-07T11:09:54.281Z,11.30
2023-05-07T11:12:40.418Z,11.30
2023-05-07T11:15:09.627Z,11.30
2023-05-07T11:17:55.387Z,11.40
2023-05-07T11:20:44.732Z,11.40
2023-05-07T11:23:33.129Z,11.50
2023-05-07T11:26:07.825Z,11.60
2023-05-07T11:28:40.969Z,11.70
2023-05-07T11:31:09.315Z,11.60
2023-05-07T11:33:37.787Z,11.60
2023-05-07T11:36:06.573Z,11.70
2023-05-07T11:38:38.303Z,11.70
2023-05-07T11:41:06.547Z,11.80
2023-05-07T11:43:34.570Z,11.80
2023-05-07T11:46:11.981Z,11.80
2023-05-07T11:48:40.259Z,11.80
2023-05-07T11:51:10.331Z,11.80
2023-05-07T11:53:40.609Z,11.90
2023-05-07T11:56:13.659Z,11.90
2023-05-07T11:58:42.444Z,11.90
2023-05-07T12:01:11.777Z,12.00
2023-05-07T12:03:44.070Z,12.00
2023-05-07T12:06:13.287Z,12.00
2023-05-07T12:08:42.251Z,12.00
2023-05-07T12:11:14.380Z,12.00
2023-05-07T12:13:43.205Z,12.10
2023-05-07T12:16:11.130Z,12.10
2023-05-07T12:18:41.852Z,12.10
2023-05-07T12:21:10.116Z,12.10
2023-05-07T12:23:39.516Z,12.20
2023-05-07T12:26:07.822Z,12.30
2023-05-07T12:28:40.139Z,12.50
2023-05-07T12:31:08.725Z,12.40
2023-05-07T12:33:37.530Z,12.40
2023-05-07T12:36:10.803Z,12.40
2023-05-07T12:38:40.004Z,12.40
2023-05-07T12:41:09.692Z,12.50
2023-05-07T12:43:37.857Z,12.50
2023-05-07T12:46:07.790Z,12.60
2023-05-07T12:48:37.365Z,12.60
2023-05-07T12:51:06.495Z,12.60
2023-05-07T12:53:34.049Z,12.70
2023-05-07T12:56:02.012Z,12.70
2023-05-07T12:58:35.768Z,12.80
2023-05-07T13:01:07.022Z,12.80
2023-05-07T13:03:40.038Z,12.80
2023-05-07T13:06:11.144Z,12.80
2023-05-07T13:08:44.686Z,12.80
2023-05-07T13:11:13.128Z,12.90
2023-05-07T13:13:42.575Z,12.90
2023-05-07T13:16:13.940Z,13.00
2023-05-07T13:18:45.090Z,13.20
2023-05-07T13:21:14.514Z,13.50
2023-05-07T13:23:42.396Z,13.70
2023-05-07T13:26:22.427Z,13.90
2023-05-07T13:28:55.629Z,14.00
2023-05-07T13:31:23.376Z,14.10
2023-05-07T13:33:51.323Z,14.10
2023-05-07T13:36:18.938Z,14.10
2023-05-07T13:38:48.412Z,14.20
2023-05-07T13:41:16.192Z,14.30
2023-05-07T13:43:43.919Z,14.30
2023-05-07T13:46:11.724Z,14.40
2023-05-07T13:48:39.307Z,14.50
2023-05-07T13:51:06.929Z,14.60
2023-05-07T13:53:34.386Z,14.70
2023-05-07T13:56:05.879Z,14.70
2023-05-07T13:58:33.887Z,14.60
2023-05-07T14:01:01.569Z,14.70
2023-05-07T14:03:29.338Z,14.70
2023-05-07T14:05:59.013Z,14.50
2023-05-07T14:08:26.989Z,14.30
2023-05-07T14:10:54.827Z,14.20
2023-05-07T14:13:22.475Z,14.10
2023-05-07T14:15:50.338Z,14.10
2023-05-07T14:18:17.874Z,14.10
2023-05-07T14:20:47.644Z,14.00
2023-05-07T14:23:15.413Z,14.00
2023-05-07T14:25:44.768Z,14.00
2023-05-07T14:28:12.275Z,14.00
2023-05-07T14:30:39.878Z,14.00
2023-05-07T14:33:07.534Z,14.00
2023-05-07T14:35:35.028Z,14.00
2023-05-07T14:38:02.825Z,14.10
2023-05-07T14:40:30.381Z,14.30
2023-05-07T14:42:59.032Z,14.40
2023-05-07T14:45:28.704Z,14.50
2023-05-07T14:47:58.738Z,14.50
2023-05-07T14:50:27.126Z,14.40
2023-05-07T14:52:54.734Z,14.30
2023-05-07T14:55:22.429Z,14.20
2023-05-07T14:57:50.160Z,14.20
2023-05-07T15:00:17.910Z,14.10
2023-05-07T15:02:45.762Z,14.10
2023-05-07T15:05:13.765Z,14.10
2023-05-07T15:07:41.650Z,14.10
2023-05-07T15:10:09.575Z,14.10
2023-05-07T15:12:37.184Z,14.10
2023-05-07T15:15:05.389Z,14.10
2023-05-07T15:17:32.937Z,14.10
2023-05-07T15:20:00.672Z,14.10
2023-05-07T15:22:28.403Z,14.20
2023-05-07T15:24:58.386Z,14.10
2023-05-07T15:27:28.285Z,14.10
2023-05-07T15:29:58.229Z,14.10
2023-05-07T15:32:26.878Z,14.10
2023-05-07T15:34:54.532Z,14.10
2023-05-07T15:37:22.055Z,14.10
2023-05-07T15:39:49.642Z,14.10
2023-05-07T15:42:17.133Z,14.10
2023-05-07T15:44:45.039Z,14.10
2023-05-07T15:47:15.239Z,14.10
2023-05-07T15:49:43.599Z,14.00
2023-05-07T15:52:16.245Z,14.10
2023-05-07T15:54:44.353Z,14.10
2023-05-07T15:57:12.740Z,14.10
2023-05-07T15:59:40.595Z,14.10
2023-05-07T16:02:09.404Z,14.10
2023-05-07T16:04:37.055Z,14.00
2023-05-07T16:07:04.952Z,14.00
2023-05-07T16:09:33.154Z,14.10
2023-05-07T16:12:01.393Z,14.10
2023-05-07T16:14:28.932Z,14.10
2023-05-07T16:16:57.093Z,14.10
2023-05-07T16:19:24.803Z,14.10
2023-05-07T16:21:53.075Z,14.00
2023-05-07T16:24:21.075Z,14.00
2023-05-07T16:26:48.621Z,14.00
2023-05-07T16:29:16.257Z,14.00
2023-05-07T16:31:44.877Z,14.00
2023-05-07T16:34:12.539Z,14.00
2023-05-07T16:36:40.185Z,14.00
2023-05-07T16:39:07.806Z,14.00
2023-05-07T16:41:35.437Z,14.00
2023-05-07T16:44:04.116Z,14.00
2023-05-07T16:46:32.579Z,14.00
2023-05-07T16:49:00.150Z,14.00
2023-05-07T16:51:28.297Z,14.00
2023-05-07T16:53:56.060Z,14.00
2023-05-07T16:56:23.697Z,14.00
2023-05-07T16:58:51.829Z,13.90
2023-05-07T17:01:19.954Z,13.90
2023-05-07T17:03:47.841Z,13.90
2023-05-07T17:06:15.499Z,13.90
2023-05-07T17:08:43.291Z,13.90
2023-05-07T17:11:12.491Z,13.90
2023-05-07T17:13:41.428Z,13.90
2023-05-07T17:16:09.139Z,13.90
2023-05-07T17:18:36.737Z,13.90
2023-05-07T17:21:04.334Z,13.90
2023-05-07T17:23:31.811Z,13.90
2023-05-07T17:25:59.349Z,13.80
2023-05-07T17:28:26.808Z,13.80
2023-05-07T17:30:54.390Z,13.80
2023-05-07T17:33:22.419Z,13.80
2023-05-07T17:35:50.290Z,13.80
2023-05-07T17:38:17.883Z,13.80
2023-05-07T17:40:45.392Z,13.80
2023-05-07T17:43:12.973Z,13.70
2023-05-07T17:45:43.559Z,13.80
2023-05-07T17:48:11.281Z,13.70
2023-05-07T17:50:38.979Z,13.70
2023-05-07T17:53:06.492Z,13.70
2023-05-07T17:55:34.187Z,13.70
2023-05-07T17:58:02.881Z,13.70
2023-05-07T18:00:30.669Z,13.70
2023-05-07T18:03:00.288Z,13.70
2023-05-07T18:05:28.373Z,13.70
2023-05-07T18:07:56.473Z,13.70
2023-05-07T18:10:24.406Z,13.60
2023-05-07T18:12:52.237Z,13.60
2023-05-07T18:15:19.885Z,13.40
2023-05-07T18:17:47.488Z,13.20
2023-05-07T18:20:15.206Z,13.20
2023-05-07T18:22:42.761Z,13.30
2023-05-07T18:25:10.468Z,13.40
2023-05-07T18:27:38.142Z,13.40
2023-05-07T18:30:06.598Z,13.40
2023-05-07T18:32:34.136Z,13.40
2023-05-07T18:35:01.654Z,13.40
2023-05-07T18:37:29.879Z,13.50
2023-05-07T18:39:58.447Z,13.40
2023-05-07T18:42:26.292Z,13.40
2023-05-07T18:44:53.794Z,13.50
2023-05-07T18:47:21.315Z,13.40
2023-05-07T18:49:48.983Z,13.50
2023-05-07T18:52:21.329Z,13.40
2023-05-07T18:54:49.125Z,13.40
2023-05-07T18:57:17.150Z,13.40
2023-05-07T18:59:44.651Z,13.40
2023-05-07T19:02:14.251Z,13.40
2023-05-07T19:04:41.842Z,13.40
2023-05-07T19:07:09.405Z,13.40
2023-05-07T19:09:37.018Z,13.40
2023-05-07T19:12:05.104Z,13.40
2023-05-07T19:14:32.561Z,13.40
2023-05-07T19:17:00.162Z,13.40
2023-05-07T19:19:28.181Z,13.40
2023-05-07T19:21:55.863Z,13.30
2023-05-07T19:24:23.439Z,13.30
2023-05-07T19:26:51.656Z,13.30
2023-05-07T19:29:19.199Z,13.30
2023-05-07T19:31:46.835Z,13.30
2023-05-07T19:34:14.545Z,13.30
2023-05-07T19:36:42.367Z,13.30
2023-05-07T19:39:09.888Z,13.20
2023-05-07T19:41:37.440Z,13.20
2023-05-07T19:44:05.135Z,13.20
2023-05-07T19:46:32.882Z,13.20
2023-05-07T19:49:01.107Z,13.20
2023-05-07T19:51:32.595Z,13.20
2023-05-07T19:54:00.447Z,13.20
2023-05-07T19:56:28.066Z,13.20
2023-05-07T19:58:55.635Z,13.20
2023-05-07T20:01:23.251Z,13.10
2023-05-07T20:03:50.913Z,13.10
2023-05-07T20:06:18.546Z,13.10
2023-05-07T20:08:46.139Z,13.10
2023-05-07T20:11:14.462Z,13.10
2023-05-07T20:13:42.140Z,13.10
2023-05-07T20:16:09.879Z,13.00
2023-05-07T20:18:37.749Z,13.00
2023-05-07T20:21:05.434Z,13.00
2023-05-07T20:23:33.196Z,13.00
2023-05-07T20:26:00.936Z,13.00
2023-05-07T20:28:28.460Z,13.00
2023-05-07T20:30:56.086Z,13.00
2023-05-07T20:33:23.551Z,13.00
2023-05-07T20:35:51.080Z,13.00
2023-05-07T20:38:18.700Z,12.90
2023-05-07T20:40:46.233Z,12.90
2023-05-07T20:43:13.859Z,12.90
2023-05-07T20:45:41.528Z,12.90
2023-05-07T20:48:09.110Z,12.90
2023-05-07T20:50:36.914Z,12.90
2023-05-07T20:53:04.423Z,12.90
2023-05-07T20:55:31.890Z,12.90
2023-05-07T20:57:59.438Z,12.80
2023-05-07T21:00:27.053Z,12.80
2023-05-07T21:02:54.596Z,12.80
2023-05-07T21:05:22.178Z,12.80
2023-05-07T21:07:49.657Z,12.80
2023-05-07T21:10:17.208Z,12.80
2023-05-07T21:12:44.683Z,12.80
2023-05-07T21:15:12.410Z,12.80
2023-05-07T21:17:39.925Z,12.80
2023-05-07T21:20:08.249Z,12.70
2023-05-07T21:22:35.898Z,12.70
2023-05-07T21:25:03.702Z,12.70
2023-05-07T21:27:31.330Z,12.70
2023-05-07T21:30:03.759Z,12.70
2023-05-07T21:32:31.714Z,12.70
2023-05-07T21:35:00.993Z,12.70
2023-05-07T21:37:28.514Z,12.60
2023-05-07T21:39:56.283Z,12.70
2023-05-07T21:42:23.814Z,12.60
2023-05-07T21:44:51.348Z,12.60
2023-05-07T21:47:19.659Z,12.60
2023-05-07T21:49:47.254Z,12.60
2023-05-07T21:52:16.210Z,12.60
2023-05-07T21:54:43.979Z,12.50
2023-05-07T21:57:11.463Z,12.50
2023-05-07T21:59:38.952Z,12.50
2023-05-07T22:02:06.959Z,12.50
2023-05-07T22:04:34.472Z,12.50
2023-05-07T22:07:02.009Z,12.50
2023-05-07T22:09:29.611Z,12.40
2023-05-07T22:11:57.095Z,12.50
2023-05-07T22:14:24.644Z,12.40
2023-05-07T22:16:52.240Z,12.40
2023-05-07T22:19:19.925Z,12.40
2023-05-07T22:21:47.422Z,12.40
2023-05-07T22:24:15.273Z,12.40
2023-05-07T22:26:42.832Z,12.40
2023-05-07T22:29:10.499Z,12.30
2023-05-07T22:31:37.978Z,12.30
2023-05-07T22:34:05.590Z,12.30
2023-05-07T22:36:33.501Z,12.30
2023-05-07T22:39:01.682Z,12.30
2023-05-07T22:41:29.205Z,12.30
2023-05-07T22:43:56.973Z,12.30
2023-05-07T22:46:24.857Z,12.20
2023-05-07T22:48:52.732Z,12.20
2023-05-07T22:51:20.359Z,12.20
2023-05-07T22:53:47.902Z,12.20
2023-05-07T22:56:16.033Z,12.20
2023-05-07T22:58:43.534Z,12.20
2023-05-07T23:01:15.268Z,12.10
2023-05-07T23:03:44.007Z,12.10
2023-05-07T23:06:11.665Z,12.10
2023-05-07T23:08:39.179Z,12.10
2023-05-07T23:11:06.859Z,12.10
2023-05-07T23:13:34.583Z,12.10
2023-05-07T23:16:02.114Z,12.10
2023-05-07T23:18:30.610Z,12.00
2023-05-07T23:20:58.242Z,12.00
2023-05-07T23:23:26.017Z,12.00
2023-05-07T23:25:53.766Z,11.90
2023-05-07T23:28:21.286Z,11.90
2023-05-07T23:30:48.819Z,11.90
2023-05-07T23:33:19.283Z,11.90
2023-05-07T23:35:46.873Z,11.90
2023-05-07T23:38:14.332Z,11.90
2023-05-07T23:40:42.079Z,11.90
2023-05-07T23:43:09.549Z,11.80
2023-05-07T23:45:37.045Z,11.80
2023-05-07T23:48:04.702Z,11.80
2023-05-07T23:50:32.228Z,11.80
2023-05-07T23:52:59.756Z,11.80
2023-05-07T23:55:27.207Z,11.80
2023-05-07T23:57:54.791Z,11.80
